createdAt,value
2022-07-29T00:00:21.396Z,32.64
2022-07-29T00:00:45.419Z,32.85
2022-07-29T00:01:09.464Z,32.60
2022-07-29T00:01:41.890Z,32.86
2022-07-29T00:02:03.789Z,33.23
2022-07-29T00:02:25.732Z,33.18
2022-07-29T00:02:48.534Z,32.56
2022-07-29T00:03:10.378Z,33.01
2022-07-29T00:03:32.160Z,32.63
2022-07-29T00:03:53.944Z,32.73
2022-07-29T00:04:16.974Z,33.26
2022-07-29T00:04:39.109Z,33.41
2022-07-29T00:05:00.938Z,33.27
2022-07-29T00:05:22.647Z,33.28
2022-07-29T00:05:45.316Z,33.23
2022-07-29T00:06:07.290Z,33.62
2022-07-29T00:06:29.026Z,32.80
2022-07-29T00:06:50.709Z,32.96
2022-07-29T00:07:13.301Z,33.18
2022-07-29T00:07:35.698Z,32.74
2022-07-29T00:07:57.597Z,33.04
2022-07-29T00:08:19.670Z,33.03
2022-07-29T00:08:41.367Z,32.68
2022-07-29T00:09:04.289Z,33.30
2022-07-29T00:09:25.975Z,33.30
2022-07-29T00:09:51.733Z,33.25
2022-07-29T00:10:14.383Z,32.79
2022-07-29T00:10:37.452Z,32.93
2022-07-29T00:10:59.454Z,32.99
2022-07-29T00:11:21.183Z,33.10
2022-07-29T00:11:44.229Z,32.96
2022-07-29T00:12:06.617Z,33.09
2022-07-29T00:12:31.794Z,33.24
2022-07-29T00:12:53.996Z,33.36
2022-07-29T00:13:16.851Z,33.10
2022-07-29T00:13:38.789Z,32.98
2022-07-29T00:14:00.509Z,33.16
2022-07-29T00:14:59.314Z,33.60
2022-07-29T00:15:21.109Z,33.15
2022-07-29T00:15:43.204Z,33.32
2022-07-29T00:16:06.227Z,33.28
2022-07-29T00:16:29.452Z,33.27
2022-07-29T00:16:51.274Z,33.15
2022-07-29T00:17:13.141Z,33.25
2022-07-29T00:17:41.780Z,33.38
2022-07-29T00:18:03.623Z,33.27
2022-07-29T00:18:25.353Z,33.26
2022-07-29T00:18:47.158Z,33.30
2022-07-29T00:19:09.948Z,33.91
2022-07-29T00:19:32.709Z,33.99
2022-07-29T00:19:54.728Z,33.53
2022-07-29T00:20:16.849Z,33.49
2022-07-29T00:20:39.560Z,34.20
2022-07-29T00:21:01.354Z,33.79
2022-07-29T00:21:22.986Z,33.53
2022-07-29T00:21:44.636Z,33.57
2022-07-29T00:22:07.262Z,33.53
2022-07-29T00:22:29.006Z,33.76
2022-07-29T00:22:50.803Z,33.59
2022-07-29T00:23:13.717Z,33.56
2022-07-29T00:23:37.006Z,33.64
2022-07-29T00:23:58.772Z,33.40
2022-07-29T00:24:20.515Z,33.57
2022-07-29T00:24:42.317Z,32.95
2022-07-29T00:25:06.745Z,33.20
2022-07-29T00:25:29.440Z,33.55
2022-07-29T00:25:51.243Z,33.54
2022-07-29T00:26:12.924Z,33.59
2022-07-29T00:26:34.734Z,33.73
2022-07-29T00:26:57.428Z,33.71
2022-07-29T00:27:19.181Z,33.31
2022-07-29T00:27:41.073Z,33.38
2022-07-29T00:28:02.769Z,33.89
2022-07-29T00:28:25.442Z,33.85
2022-07-29T00:28:47.176Z,33.55
2022-07-29T00:29:51.546Z,33.47
2022-07-29T00:30:13.799Z,33.33
2022-07-29T00:30:35.509Z,33.27
2022-07-29T00:30:57.190Z,33.11
2022-07-29T00:31:19.980Z,33.73
2022-07-29T00:31:43.145Z,34.16
2022-07-29T00:32:05.365Z,33.69
2022-07-29T00:32:26.986Z,33.93
2022-07-29T00:32:48.668Z,33.23
2022-07-29T00:33:11.486Z,33.47
2022-07-29T00:33:33.156Z,33.54
2022-07-29T00:33:55.206Z,33.28
2022-07-29T00:34:35.828Z,33.83
2022-07-29T00:35:16.335Z,33.35
2022-07-29T00:35:47.338Z,33.54
2022-07-29T00:36:09.104Z,33.41
2022-07-29T00:36:30.805Z,33.55
2022-07-29T00:36:53.455Z,33.36
2022-07-29T00:37:15.148Z,32.95
2022-07-29T00:37:36.863Z,33.44
2022-07-29T00:37:58.571Z,33.58
2022-07-29T00:38:21.921Z,33.17
2022-07-29T00:38:46.082Z,32.98
2022-07-29T00:39:07.869Z,32.91
2022-07-29T00:39:30.426Z,33.19
2022-07-29T00:39:53.333Z,33.36
2022-07-29T00:40:15.050Z,33.52
2022-07-29T00:40:36.782Z,33.24
2022-07-29T00:41:02.509Z,33.18
2022-07-29T00:41:24.228Z,32.99
2022-07-29T00:41:45.945Z,33.16
2022-07-29T00:42:07.927Z,33.14
2022-07-29T00:42:30.748Z,32.43
2022-07-29T00:42:53.456Z,32.45
2022-07-29T00:43:15.718Z,32.82
2022-07-29T00:43:37.501Z,32.86
2022-07-29T00:44:00.192Z,32.81
2022-07-29T00:44:21.931Z,32.94
2022-07-29T00:44:43.780Z,32.78
2022-07-29T00:45:06.344Z,33.23
2022-07-29T00:45:29.148Z,32.56
2022-07-29T00:45:50.843Z,32.67
2022-07-29T00:46:13.258Z,32.88
2022-07-29T00:46:35.051Z,33.11
2022-07-29T00:46:59.195Z,33.39
2022-07-29T00:47:20.930Z,33.17
2022-07-29T00:47:42.674Z,33.29
2022-07-29T00:48:06.400Z,33.12
2022-07-29T00:48:28.273Z,33.03
2022-07-29T00:48:50.192Z,33.16
2022-07-29T00:49:12.262Z,33.01
2022-07-29T00:49:35.797Z,33.21
2022-07-29T00:49:57.501Z,33.22
2022-07-29T00:50:19.703Z,33.23
2022-07-29T00:50:43.392Z,33.47
2022-07-29T00:51:06.597Z,33.44
2022-07-29T00:51:28.434Z,33.10
2022-07-29T00:51:51.005Z,33.26
2022-07-29T00:52:16.910Z,33.58
2022-07-29T00:52:40.913Z,34.00
2022-07-29T00:53:04.102Z,34.27
2022-07-29T00:53:27.556Z,34.33
2022-07-29T00:53:51.907Z,34.23
2022-07-29T00:54:14.046Z,33.62
2022-07-29T00:54:39.819Z,33.55
2022-07-29T00:55:10.445Z,33.84
2022-07-29T00:55:32.155Z,33.71
2022-07-29T00:55:54.912Z,33.15
2022-07-29T00:56:16.699Z,33.15
2022-07-29T00:56:38.535Z,33.39
2022-07-29T00:57:01.860Z,33.53
2022-07-29T00:57:23.671Z,33.14
2022-07-29T00:57:46.037Z,33.21
2022-07-29T00:58:08.877Z,33.13
2022-07-29T00:58:30.583Z,33.13
2022-07-29T00:58:53.065Z,33.42
2022-07-29T00:59:14.842Z,33.34
2022-07-29T00:59:36.584Z,33.56
2022-07-29T00:59:59.292Z,33.64
2022-07-29T01:00:24.737Z,33.94
2022-07-29T01:00:46.528Z,33.58
2022-07-29T01:01:08.310Z,33.64
2022-07-29T01:01:31.010Z,33.73
2022-07-29T01:01:52.815Z,33.58
2022-07-29T01:02:16.258Z,33.50
2022-07-29T01:02:38.109Z,33.08
2022-07-29T01:03:00.898Z,33.00
2022-07-29T01:03:23.722Z,33.27
2022-07-29T01:03:45.440Z,33.05
2022-07-29T01:04:07.535Z,33.70
2022-07-29T01:04:30.608Z,33.82
2022-07-29T01:04:53.483Z,33.27
2022-07-29T01:05:17.501Z,33.28
2022-07-29T01:05:50.289Z,33.64
2022-07-29T01:06:13.909Z,33.77
2022-07-29T01:06:35.847Z,33.88
2022-07-29T01:06:57.977Z,33.27
2022-07-29T01:07:21.291Z,33.16
2022-07-29T01:07:43.983Z,33.16
2022-07-29T01:08:08.226Z,32.95
2022-07-29T01:08:34.073Z,33.19
2022-07-29T01:08:57.725Z,32.96
2022-07-29T01:09:20.201Z,33.04
2022-07-29T01:10:04.652Z,33.47
2022-07-29T01:10:27.196Z,33.46
2022-07-29T01:10:50.213Z,33.04
2022-07-29T01:11:14.271Z,33.49
2022-07-29T01:11:37.055Z,33.71
2022-07-29T01:12:01.384Z,33.93
2022-07-29T01:12:27.133Z,34.28
2022-07-29T01:12:51.756Z,34.13
2022-07-29T01:13:16.672Z,33.64
2022-07-29T01:13:38.787Z,33.68
2022-07-29T01:14:01.603Z,33.82
2022-07-29T01:14:24.079Z,33.53
2022-07-29T01:14:50.613Z,33.65
2022-07-29T01:15:13.088Z,33.42
2022-07-29T01:15:38.078Z,33.26
2022-07-29T01:16:17.138Z,33.40
2022-07-29T01:16:46.926Z,33.42
2022-07-29T01:17:13.565Z,33.46
2022-07-29T01:17:41.348Z,33.29
2022-07-29T01:18:22.203Z,33.23
2022-07-29T01:18:47.917Z,33.56
2022-07-29T01:19:35.221Z,33.02
2022-07-29T01:20:04.631Z,33.26
2022-07-29T01:20:33.699Z,33.19
2022-07-29T01:21:23.610Z,33.57
2022-07-29T01:21:52.902Z,33.73
2022-07-29T01:22:27.317Z,33.19
2022-07-29T01:23:10.487Z,33.54
2022-07-29T01:23:54.600Z,33.74
2022-07-29T01:24:34.765Z,33.60
2022-07-29T01:25:14.595Z,33.57
2022-07-29T01:26:25.295Z,33.30
2022-07-29T01:26:51.451Z,33.59
2022-07-29T01:27:30.576Z,33.71
2022-07-29T01:28:08.725Z,33.91
2022-07-29T01:29:00.375Z,33.65
2022-07-29T01:29:29.860Z,33.67
2022-07-29T01:30:05.407Z,33.71
2022-07-29T01:30:30.182Z,33.48
2022-07-29T01:30:55.797Z,33.81
2022-07-29T01:31:26.630Z,33.60
2022-07-29T01:31:59.261Z,33.90
2022-07-29T01:32:29.863Z,33.92
2022-07-29T01:32:56.069Z,33.81
2022-07-29T01:33:34.310Z,33.90
2022-07-29T01:34:00.170Z,34.19
2022-07-29T01:34:29.149Z,34.35
2022-07-29T01:34:55.472Z,34.37
2022-07-29T01:35:21.514Z,34.16
2022-07-29T01:35:46.186Z,33.96
2022-07-29T01:36:13.144Z,33.56
2022-07-29T01:36:38.284Z,33.70
2022-07-29T01:37:10.261Z,34.01
2022-07-29T01:37:39.558Z,33.91
2022-07-29T01:38:09.420Z,33.78
2022-07-29T01:38:31.207Z,33.75
2022-07-29T01:39:01.162Z,34.02
2022-07-29T01:39:28.201Z,33.81
2022-07-29T01:39:52.589Z,33.55
2022-07-29T01:40:22.577Z,33.81
2022-07-29T01:40:49.009Z,33.84
2022-07-29T01:41:16.027Z,33.95
2022-07-29T01:41:44.801Z,33.66
2022-07-29T01:42:16.441Z,33.33
2022-07-29T01:42:43.084Z,33.79
2022-07-29T01:43:13.801Z,33.61
2022-07-29T01:43:41.643Z,33.50
2022-07-29T01:44:13.583Z,34.04
2022-07-29T01:44:40.833Z,33.92
2022-07-29T01:45:09.302Z,33.77
2022-07-29T01:45:40.244Z,33.86
2022-07-29T01:46:05.385Z,33.72
2022-07-29T01:46:32.951Z,33.92
2022-07-29T01:47:00.180Z,33.83
2022-07-29T01:47:26.516Z,33.56
2022-07-29T01:47:55.363Z,33.92
2022-07-29T01:48:21.933Z,33.64
2022-07-29T01:48:48.408Z,33.86
2022-07-29T01:49:15.074Z,33.53
2022-07-29T01:49:40.876Z,33.59
2022-07-29T01:50:09.256Z,33.64
2022-07-29T01:50:35.685Z,33.70
2022-07-29T01:51:03.198Z,34.00
2022-07-29T01:51:30.202Z,34.03
2022-07-29T01:51:56.447Z,33.72
2022-07-29T01:52:23.181Z,33.79
2022-07-29T01:52:50.624Z,34.03
2022-07-29T01:53:16.895Z,34.00
2022-07-29T01:53:47.152Z,33.81
2022-07-29T01:54:14.248Z,34.12
2022-07-29T01:54:43.728Z,34.12
2022-07-29T01:55:12.971Z,33.68
2022-07-29T01:55:39.689Z,34.04
2022-07-29T01:56:04.567Z,33.58
2022-07-29T01:56:30.680Z,33.90
2022-07-29T01:56:54.606Z,34.13
2022-07-29T01:57:19.421Z,34.17
2022-07-29T01:57:46.049Z,33.86
2022-07-29T01:58:08.656Z,34.33
2022-07-29T01:58:32.437Z,34.17
2022-07-29T01:58:55.481Z,34.11
2022-07-29T01:59:20.944Z,33.92
2022-07-29T01:59:46.157Z,34.36
2022-07-29T02:00:09.713Z,34.15
2022-07-29T02:00:35.315Z,34.76
2022-07-29T02:01:00.310Z,34.24
2022-07-29T02:01:25.209Z,34.39
2022-07-29T02:01:49.532Z,34.56
2022-07-29T02:02:14.837Z,34.39
2022-07-29T02:02:38.724Z,34.25
2022-07-29T02:03:06.060Z,34.47
2022-07-29T02:03:28.893Z,34.42
2022-07-29T02:03:53.621Z,34.55
2022-07-29T02:04:29.159Z,34.69
2022-07-29T02:04:55.057Z,34.24
2022-07-29T02:05:19.809Z,34.21
2022-07-29T02:05:46.448Z,34.58
2022-07-29T02:06:10.485Z,34.44
2022-07-29T02:06:35.365Z,34.40
2022-07-29T02:07:01.552Z,34.07
2022-07-29T02:07:26.364Z,34.33
2022-07-29T02:07:49.516Z,34.02
2022-07-29T02:08:13.878Z,33.95
2022-07-29T02:08:39.032Z,34.37
2022-07-29T02:09:03.309Z,34.24
2022-07-29T02:09:27.109Z,34.48
2022-07-29T02:09:52.258Z,34.31
2022-07-29T02:10:15.686Z,34.38
2022-07-29T02:10:41.133Z,34.59
2022-07-29T02:11:05.938Z,34.47
2022-07-29T02:11:29.255Z,34.71
2022-07-29T02:11:56.192Z,34.44
2022-07-29T02:12:19.431Z,34.16
2022-07-29T02:12:48.616Z,34.29
2022-07-29T02:13:14.539Z,33.94
2022-07-29T02:13:38.709Z,34.37
2022-07-29T02:14:02.469Z,34.21
2022-07-29T02:14:28.765Z,34.02
2022-07-29T02:14:55.491Z,34.31
2022-07-29T02:15:19.157Z,34.39
2022-07-29T02:15:43.409Z,33.92
2022-07-29T02:16:08.937Z,34.17
2022-07-29T02:16:32.741Z,34.35
2022-07-29T02:16:57.043Z,34.45
2022-07-29T02:17:23.474Z,34.55
2022-07-29T02:17:52.036Z,34.52
2022-07-29T02:18:17.596Z,34.52
2022-07-29T02:18:45.489Z,34.14
2022-07-29T02:19:09.654Z,34.32
2022-07-29T02:19:34.961Z,34.02
2022-07-29T02:20:00.276Z,34.07
2022-07-29T02:20:23.791Z,34.06
2022-07-29T02:20:49.201Z,34.29
2022-07-29T02:21:15.550Z,34.58
2022-07-29T02:21:39.368Z,33.96
2022-07-29T02:22:02.614Z,34.21
2022-07-29T02:22:26.135Z,34.51
2022-07-29T02:22:50.737Z,34.43
2022-07-29T02:23:14.058Z,34.90
2022-07-29T02:23:50.285Z,34.87
2022-07-29T02:24:18.664Z,34.24
2022-07-29T02:24:42.216Z,33.95
2022-07-29T02:25:05.520Z,34.17
2022-07-29T02:25:37.406Z,34.39
2022-07-29T02:26:00.698Z,34.06
2022-07-29T02:26:25.375Z,34.29
2022-07-29T02:26:48.945Z,34.18
2022-07-29T02:27:12.895Z,34.39
2022-07-29T02:27:35.953Z,34.15
2022-07-29T02:27:59.547Z,34.41
2022-07-29T02:28:23.654Z,34.06
2022-07-29T02:28:47.897Z,34.47
2022-07-29T02:29:11.151Z,34.51
2022-07-29T02:29:36.762Z,34.34
2022-07-29T02:30:02.577Z,34.90
2022-07-29T02:30:26.524Z,34.65
2022-07-29T02:30:50.947Z,34.54
2022-07-29T02:31:14.810Z,34.88
2022-07-29T02:31:39.863Z,34.89
2022-07-29T02:32:02.140Z,34.33
2022-07-29T02:32:25.685Z,34.63
2022-07-29T02:32:49.378Z,34.78
2022-07-29T02:33:16.210Z,34.66
2022-07-29T02:33:40.442Z,34.32
2022-07-29T02:34:04.507Z,34.63
2022-07-29T02:34:28.096Z,34.58
2022-07-29T02:34:51.849Z,34.94
2022-07-29T02:35:15.946Z,34.56
2022-07-29T02:35:39.127Z,35.00
2022-07-29T02:36:02.611Z,34.64
2022-07-29T02:36:26.878Z,34.97
2022-07-29T02:36:49.642Z,35.22
2022-07-29T02:37:12.770Z,35.17
2022-07-29T02:37:36.307Z,35.00
2022-07-29T02:38:16.961Z,34.70
2022-07-29T02:38:54.452Z,34.48
2022-07-29T02:39:16.658Z,34.87
2022-07-29T02:39:40.210Z,35.29
2022-07-29T02:40:02.965Z,34.90
2022-07-29T02:40:25.785Z,35.03
2022-07-29T02:40:49.356Z,35.42
2022-07-29T02:41:16.580Z,35.47
2022-07-29T02:41:43.058Z,35.13
2022-07-29T02:42:09.227Z,35.46
2022-07-29T02:42:33.285Z,35.54
2022-07-29T02:42:55.763Z,35.62
2022-07-29T02:43:19.773Z,35.46
2022-07-29T02:43:45.470Z,35.32
2022-07-29T02:44:10.967Z,35.18
2022-07-29T02:44:35.431Z,35.37
2022-07-29T02:44:58.461Z,35.24
2022-07-29T02:45:20.289Z,35.10
2022-07-29T02:45:43.750Z,35.19
2022-07-29T02:46:27.988Z,35.36
2022-07-29T02:46:54.111Z,35.65
2022-07-29T02:47:20.246Z,35.78
2022-07-29T02:47:45.860Z,35.21
2022-07-29T02:48:14.108Z,35.50
2022-07-29T02:48:38.667Z,34.90
2022-07-29T02:49:09.249Z,35.04
2022-07-29T02:49:37.727Z,35.01
2022-07-29T02:50:05.538Z,35.06
2022-07-29T02:50:33.900Z,35.70
2022-07-29T02:51:05.983Z,35.21
2022-07-29T02:51:42.579Z,35.21
2022-07-29T02:52:14.488Z,35.58
2022-07-29T02:52:40.822Z,35.36
2022-07-29T02:53:10.373Z,35.33
2022-07-29T02:53:34.379Z,35.35
2022-07-29T02:54:01.498Z,35.02
2022-07-29T02:54:31.835Z,34.81
2022-07-29T02:54:56.983Z,35.11
2022-07-29T02:55:25.791Z,34.92
2022-07-29T02:55:52.517Z,35.18
2022-07-29T02:56:17.533Z,35.03
2022-07-29T02:56:41.449Z,35.64
2022-07-29T02:57:10.360Z,35.20
2022-07-29T02:57:36.092Z,35.08
2022-07-29T02:58:27.234Z,35.62
2022-07-29T02:58:55.307Z,35.51
2022-07-29T02:59:22.427Z,35.38
2022-07-29T02:59:48.361Z,35.52
2022-07-29T03:00:13.008Z,35.09
2022-07-29T03:00:39.861Z,35.32
2022-07-29T03:01:09.085Z,34.98
2022-07-29T03:01:33.850Z,35.46
2022-07-29T03:01:57.128Z,35.04
2022-07-29T03:02:20.629Z,35.22
2022-07-29T03:02:46.020Z,34.95
2022-07-29T03:03:13.281Z,34.85
2022-07-29T03:03:39.474Z,35.26
2022-07-29T03:04:05.257Z,35.27
2022-07-29T03:04:30.119Z,35.14
2022-07-29T03:04:53.710Z,35.41
2022-07-29T03:05:20.453Z,35.55
2022-07-29T03:05:42.399Z,35.44
2022-07-29T03:06:06.090Z,35.51
2022-07-29T03:06:37.950Z,35.42
2022-07-29T03:07:03.843Z,36.05
2022-07-29T03:07:26.106Z,35.86
2022-07-29T03:07:54.434Z,36.28
2022-07-29T03:08:17.808Z,35.61
2022-07-29T03:08:41.357Z,36.22
2022-07-29T03:09:05.036Z,36.03
2022-07-29T03:09:31.200Z,36.62
2022-07-29T03:09:54.684Z,36.57
2022-07-29T03:10:19.912Z,36.07
2022-07-29T03:10:48.366Z,36.71
2022-07-29T03:11:12.068Z,36.21
2022-07-29T03:11:40.063Z,36.08
2022-07-29T03:12:14.909Z,36.19
2022-07-29T03:12:37.309Z,35.75
2022-07-29T03:13:01.702Z,35.80
2022-07-29T03:13:24.782Z,35.66
2022-07-29T03:13:46.716Z,35.83
2022-07-29T03:14:08.528Z,35.78
2022-07-29T03:14:32.292Z,35.19
2022-07-29T03:14:56.995Z,35.05
2022-07-29T03:15:19.913Z,35.42
2022-07-29T03:15:44.487Z,35.14
2022-07-29T03:16:07.155Z,35.21
2022-07-29T03:16:30.393Z,35.39
2022-07-29T03:16:52.962Z,35.44
2022-07-29T03:17:15.701Z,35.59
2022-07-29T03:17:38.557Z,35.19
2022-07-29T03:18:02.247Z,35.08
2022-07-29T03:18:24.334Z,34.90
2022-07-29T03:18:46.452Z,35.18
2022-07-29T03:19:08.267Z,34.88
2022-07-29T03:19:31.581Z,34.70
2022-07-29T03:19:53.493Z,34.77
2022-07-29T03:20:15.702Z,34.41
2022-07-29T03:20:38.994Z,34.69
2022-07-29T03:21:00.829Z,35.50
2022-07-29T03:21:23.705Z,35.27
2022-07-29T03:21:46.601Z,35.27
2022-07-29T03:22:09.785Z,34.98
2022-07-29T03:22:32.726Z,35.09
2022-07-29T03:22:54.440Z,34.78
2022-07-29T03:23:20.184Z,34.52
2022-07-29T03:23:45.193Z,34.65
2022-07-29T03:24:10.674Z,34.95
2022-07-29T03:24:34.282Z,34.51
2022-07-29T03:24:55.982Z,34.83
2022-07-29T03:25:20.665Z,34.99
2022-07-29T03:25:43.882Z,35.03
2022-07-29T03:26:06.571Z,34.81
2022-07-29T03:26:28.661Z,35.56
2022-07-29T03:26:52.042Z,35.48
2022-07-29T03:27:15.105Z,35.75
2022-07-29T03:27:36.864Z,35.55
2022-07-29T03:27:58.617Z,35.47
2022-07-29T03:28:21.231Z,35.71
2022-07-29T03:28:44.198Z,35.40
2022-07-29T03:29:06.984Z,35.69
2022-07-29T03:29:33.884Z,35.92
2022-07-29T03:29:57.386Z,36.10
2022-07-29T03:30:22.152Z,35.85
2022-07-29T03:30:45.514Z,35.69
2022-07-29T03:31:07.343Z,35.59
2022-07-29T03:31:32.084Z,35.57
2022-07-29T03:31:55.486Z,35.78
2022-07-29T03:32:25.117Z,35.67
2022-07-29T03:32:47.066Z,35.92
2022-07-29T03:33:13.463Z,35.88
2022-07-29T03:33:37.112Z,35.71
2022-07-29T03:33:58.816Z,36.11
2022-07-29T03:34:21.394Z,35.87
2022-07-29T03:34:46.266Z,35.82
2022-07-29T03:35:09.027Z,36.06
2022-07-29T03:35:32.442Z,35.69
2022-07-29T03:35:54.228Z,35.92
2022-07-29T03:36:16.956Z,35.53
2022-07-29T03:36:38.930Z,35.87
2022-07-29T03:37:00.993Z,35.81
2022-07-29T03:37:24.516Z,36.27
2022-07-29T03:37:47.749Z,36.23
2022-07-29T03:38:10.452Z,36.13
2022-07-29T03:38:37.052Z,35.85
2022-07-29T03:38:59.087Z,35.58
2022-07-29T03:39:24.177Z,36.16
2022-07-29T03:39:51.488Z,35.63
2022-07-29T03:40:18.325Z,35.52
2022-07-29T03:40:46.278Z,36.03
2022-07-29T03:41:12.590Z,36.14
2022-07-29T03:41:35.842Z,35.62
2022-07-29T03:42:00.754Z,35.96
2022-07-29T03:42:25.740Z,35.73
2022-07-29T03:42:50.360Z,35.59
2022-07-29T03:43:14.141Z,35.47
2022-07-29T03:43:38.715Z,35.11
2022-07-29T03:44:14.405Z,35.33
2022-07-29T03:44:38.148Z,35.09
2022-07-29T03:45:04.360Z,35.02
2022-07-29T03:45:28.531Z,35.39
2022-07-29T03:45:53.667Z,35.23
2022-07-29T03:46:18.847Z,35.78
2022-07-29T03:46:42.604Z,35.58
2022-07-29T03:47:08.789Z,35.40
2022-07-29T03:47:43.477Z,35.72
2022-07-29T03:48:16.838Z,35.14
2022-07-29T03:48:44.556Z,35.65
2022-07-29T03:49:09.249Z,36.09
2022-07-29T03:49:33.684Z,35.65
2022-07-29T03:50:00.744Z,35.66
2022-07-29T03:50:23.892Z,35.44
2022-07-29T03:50:46.183Z,35.41
2022-07-29T03:51:07.850Z,35.41
2022-07-29T03:51:33.136Z,35.84
2022-07-29T03:51:57.223Z,35.62
2022-07-29T03:52:19.677Z,35.84
2022-07-29T03:52:45.788Z,35.47
2022-07-29T03:53:09.200Z,34.96
2022-07-29T03:53:30.972Z,35.21
2022-07-29T03:53:53.124Z,35.04
2022-07-29T03:54:16.214Z,34.91
2022-07-29T03:54:39.278Z,35.02
2022-07-29T03:55:01.838Z,34.81
2022-07-29T03:55:23.997Z,35.30
2022-07-29T03:55:48.269Z,35.21
2022-07-29T03:56:12.743Z,35.53
2022-07-29T03:56:39.497Z,35.78
2022-07-29T03:57:03.127Z,35.94
2022-07-29T03:57:29.198Z,35.73
2022-07-29T03:57:52.074Z,35.22
2022-07-29T03:58:15.545Z,35.27
2022-07-29T03:58:38.763Z,35.76
2022-07-29T03:59:04.085Z,35.56
2022-07-29T03:59:28.025Z,35.85
2022-07-29T03:59:51.986Z,36.04
2022-07-29T04:00:16.463Z,35.96
2022-07-29T04:00:39.757Z,35.67
2022-07-29T04:01:01.825Z,35.71
2022-07-29T04:01:24.848Z,35.38
2022-07-29T04:01:47.679Z,35.28
2022-07-29T04:02:14.557Z,35.79
2022-07-29T04:02:37.582Z,36.04
2022-07-29T04:02:59.464Z,35.59
2022-07-29T04:03:22.777Z,36.09
2022-07-29T04:03:46.247Z,35.86
2022-07-29T04:04:08.401Z,35.15
2022-07-29T04:04:30.162Z,35.56
2022-07-29T04:04:53.354Z,35.67
2022-07-29T04:05:15.849Z,35.52
2022-07-29T04:05:37.778Z,35.18
2022-07-29T04:06:01.768Z,35.79
2022-07-29T04:06:26.642Z,35.72
2022-07-29T04:06:49.746Z,35.94
2022-07-29T04:07:13.254Z,35.95
2022-07-29T04:07:34.919Z,35.52
2022-07-29T04:07:57.732Z,35.40
2022-07-29T04:08:19.444Z,35.51
2022-07-29T04:08:41.161Z,35.64
2022-07-29T04:09:02.928Z,35.66
2022-07-29T04:09:25.572Z,35.00
2022-07-29T04:09:47.323Z,35.34
2022-07-29T04:10:09.388Z,35.48
2022-07-29T04:10:32.178Z,35.60
2022-07-29T04:10:55.961Z,35.39
2022-07-29T04:11:18.796Z,35.41
2022-07-29T04:12:03.387Z,36.22
2022-07-29T04:12:23.206Z,35.99
2022-07-29T04:12:45.947Z,36.06
2022-07-29T04:13:07.746Z,35.78
2022-07-29T04:13:29.515Z,35.57
2022-07-29T04:13:51.226Z,35.19
2022-07-29T04:14:14.151Z,34.88
2022-07-29T04:14:36.282Z,35.16
2022-07-29T04:14:57.990Z,35.00
2022-07-29T04:15:21.287Z,35.14
2022-07-29T04:15:44.279Z,35.05
2022-07-29T04:16:06.172Z,34.67
2022-07-29T04:16:28.321Z,34.79
2022-07-29T04:16:50.120Z,34.11
2022-07-29T04:17:12.777Z,34.63
2022-07-29T04:17:34.437Z,34.47
2022-07-29T04:17:56.378Z,34.79
2022-07-29T04:18:18.081Z,34.63
2022-07-29T04:18:40.808Z,34.53
2022-07-29T04:19:03.159Z,34.17
2022-07-29T04:19:24.851Z,33.93
2022-07-29T04:19:46.609Z,34.37
2022-07-29T04:20:10.517Z,34.56
2022-07-29T04:20:32.296Z,34.53
2022-07-29T04:20:54.039Z,34.08
2022-07-29T04:21:15.743Z,34.39
2022-07-29T04:21:40.066Z,33.98
2022-07-29T04:22:02.505Z,33.98
2022-07-29T04:22:24.224Z,34.33
2022-07-29T04:22:48.726Z,34.10
2022-07-29T04:23:11.412Z,34.46
2022-07-29T04:23:34.320Z,34.28
2022-07-29T04:23:56.030Z,34.89
2022-07-29T04:24:18.496Z,34.83
2022-07-29T04:24:44.352Z,34.56
2022-07-29T04:25:07.136Z,34.61
2022-07-29T04:25:28.860Z,34.62
2022-07-29T04:25:51.559Z,34.73
2022-07-29T04:26:13.300Z,34.50
2022-07-29T04:26:35.417Z,34.14
2022-07-29T04:26:57.154Z,34.01
2022-07-29T04:27:19.889Z,34.26
2022-07-29T04:27:57.675Z,34.72
2022-07-29T04:28:19.382Z,34.51
2022-07-29T04:28:43.716Z,34.59
2022-07-29T04:29:05.473Z,34.71
2022-07-29T04:29:27.188Z,34.61
2022-07-29T04:29:56.902Z,33.94
2022-07-29T04:30:21.357Z,34.21
2022-07-29T04:30:43.117Z,33.81
2022-07-29T04:31:04.912Z,34.02
2022-07-29T04:31:27.723Z,33.76
2022-07-29T04:31:49.507Z,34.28
2022-07-29T04:32:11.379Z,33.99
2022-07-29T04:32:33.201Z,33.83
2022-07-29T04:32:54.919Z,33.84
2022-07-29T04:33:18.451Z,33.94
2022-07-29T04:33:40.775Z,34.61
2022-07-29T04:34:02.503Z,34.48
2022-07-29T04:34:28.171Z,33.86
2022-07-29T04:34:51.042Z,33.53
2022-07-29T04:35:12.732Z,34.01
2022-07-29T04:35:38.292Z,34.09
2022-07-29T04:36:00.428Z,34.08
2022-07-29T04:36:29.267Z,34.63
2022-07-29T04:36:51.521Z,34.38
2022-07-29T04:37:13.563Z,34.10
2022-07-29T04:37:35.284Z,33.81
2022-07-29T04:37:57.974Z,34.04
2022-07-29T04:38:19.683Z,34.08
2022-07-29T04:38:41.426Z,34.45
2022-07-29T04:39:03.381Z,34.31
2022-07-29T04:39:29.554Z,34.07
2022-07-29T04:39:52.290Z,34.10
2022-07-29T04:40:14.200Z,34.21
2022-07-29T04:40:38.658Z,34.33
2022-07-29T04:41:00.426Z,34.26
2022-07-29T04:41:22.135Z,34.20
2022-07-29T04:41:44.973Z,34.25
2022-07-29T04:42:09.094Z,34.40
2022-07-29T04:42:30.846Z,34.13
2022-07-29T04:42:52.986Z,34.39
2022-07-29T04:43:16.586Z,34.28
2022-07-29T04:43:45.152Z,34.12
2022-07-29T04:44:07.555Z,34.32
2022-07-29T04:44:30.575Z,33.90
2022-07-29T04:44:54.697Z,34.18
2022-07-29T04:45:16.434Z,34.50
2022-07-29T04:45:46.457Z,34.07
2022-07-29T04:46:08.202Z,34.68
2022-07-29T04:46:30.045Z,34.44
2022-07-29T04:46:51.792Z,34.26
2022-07-29T04:47:14.470Z,34.09
2022-07-29T04:47:36.270Z,34.41
2022-07-29T04:47:58.081Z,34.25
2022-07-29T04:48:21.225Z,34.11
2022-07-29T04:48:47.508Z,34.42
2022-07-29T04:49:09.437Z,34.55
2022-07-29T04:49:31.290Z,34.76
2022-07-29T04:49:53.023Z,34.39
2022-07-29T04:50:15.960Z,34.36
2022-07-29T04:50:39.410Z,34.35
2022-07-29T04:51:01.116Z,34.56
2022-07-29T04:51:22.833Z,34.80
2022-07-29T04:51:45.530Z,34.16
2022-07-29T04:52:07.639Z,34.15
2022-07-29T04:52:29.346Z,34.17
2022-07-29T04:52:51.161Z,33.78
2022-07-29T04:53:13.908Z,33.95
2022-07-29T04:53:35.623Z,33.87
2022-07-29T04:53:57.519Z,33.71
2022-07-29T04:54:20.315Z,33.67
2022-07-29T04:54:41.956Z,33.35
2022-07-29T04:55:04.610Z,33.45
2022-07-29T04:55:26.350Z,33.74
2022-07-29T04:55:49.092Z,33.44
2022-07-29T04:56:10.983Z,33.80
2022-07-29T04:56:32.821Z,33.88
2022-07-29T04:56:54.576Z,33.84
2022-07-29T04:57:17.299Z,33.57
2022-07-29T04:57:38.982Z,34.22
2022-07-29T04:58:01.207Z,33.73
2022-07-29T04:58:25.536Z,33.60
2022-07-29T04:58:48.472Z,33.74
2022-07-29T04:59:10.195Z,33.63
2022-07-29T04:59:35.064Z,33.82
2022-07-29T04:59:56.750Z,33.74
2022-07-29T05:00:19.576Z,34.40
2022-07-29T05:00:41.322Z,33.68
2022-07-29T05:01:05.007Z,34.00
2022-07-29T05:01:26.739Z,33.74
2022-07-29T05:01:49.548Z,33.66
2022-07-29T05:02:11.383Z,33.22
2022-07-29T05:02:33.199Z,33.30
2022-07-29T05:02:55.091Z,33.72
2022-07-29T05:03:17.892Z,33.44
2022-07-29T05:03:39.667Z,33.74
2022-07-29T05:04:01.314Z,33.71
2022-07-29T05:04:23.943Z,33.81
2022-07-29T05:04:45.615Z,34.14
2022-07-29T05:05:09.074Z,33.68
2022-07-29T05:05:30.979Z,33.99
2022-07-29T05:05:52.898Z,33.77
2022-07-29T05:06:14.636Z,33.58
2022-07-29T05:06:37.262Z,34.03
2022-07-29T05:06:58.980Z,33.68
2022-07-29T05:07:20.724Z,34.01
2022-07-29T05:07:43.016Z,34.34
2022-07-29T05:08:06.156Z,34.24
2022-07-29T05:08:27.939Z,34.45
2022-07-29T05:08:49.672Z,34.24
2022-07-29T05:09:11.357Z,34.44
2022-07-29T05:09:34.014Z,34.40
2022-07-29T05:09:57.808Z,34.37
2022-07-29T05:10:19.495Z,34.21
2022-07-29T05:10:41.229Z,34.07
2022-07-29T05:11:11.815Z,34.17
2022-07-29T05:11:34.742Z,34.03
2022-07-29T05:11:56.431Z,33.76
2022-07-29T05:12:18.162Z,34.21
2022-07-29T05:12:39.839Z,34.20
2022-07-29T05:13:02.489Z,33.44
2022-07-29T05:13:24.408Z,34.22
2022-07-29T05:13:47.144Z,34.14
2022-07-29T05:14:09.953Z,34.05
2022-07-29T05:14:33.403Z,34.03
2022-07-29T05:14:55.599Z,34.17
2022-07-29T05:15:18.487Z,33.94
2022-07-29T05:15:41.194Z,33.74
2022-07-29T05:16:04.707Z,33.95
2022-07-29T05:16:26.628Z,34.03
2022-07-29T05:16:49.554Z,34.22
2022-07-29T05:17:12.203Z,33.95
2022-07-29T05:17:34.663Z,34.08
2022-07-29T05:17:56.302Z,34.01